createdAt,value
2019-03-01T00:04:49.895Z,92
2019-03-01T00:09:49.681Z,92
2019-03-01T00:14:49.703Z,92
2019-03-01T00:19:49.578Z,92
2019-03-01T00:24:50.490Z,92
2019-03-01T00:29:50.467Z,92
2019-03-01T00:34:49.762Z,92
2019-03-01T00:39:49.699Z,92
2019-03-01T00:44:49.634Z,92
2019-03-01T00:49:49.621Z,92
2019-03-01T00:54:49.788Z,92
2019-03-01T00:59:49.789Z,92
2019-03-01T01:04:49.916Z,92
2019-03-01T01:09:49.837Z,92
2019-03-01T01:14:49.802Z,92
2019-03-01T01:19:50.367Z,92
2019-03-01T01:24:50.188Z,92
2019-03-01T01:29:50.129Z,92
2019-03-01T01:34:50.341Z,92
2019-03-01T01:39:49.916Z,92
2019-03-01T01:44:50.018Z,92
2019-03-01T01:49:50.109Z,92
2019-03-01T01:54:49.885Z,93
2019-03-01T01:59:49.941Z,93
2019-03-01T02:04:50.513Z,93
2019-03-01T02:09:50.568Z,93
2019-03-01T02:14:50.049Z,93
2019-03-01T02:19:50.040Z,93
2019-03-01T02:24:49.695Z,93
2019-03-01T02:29:50.049Z,93
2019-03-01T02:34:50.351Z,93
2019-03-01T02:39:50.291Z,93
2019-03-01T02:44:50.232Z,93
2019-03-01T02:49:50.256Z,93
2019-03-01T02:54:50.192Z,93
2019-03-01T02:59:50.180Z,93
2019-03-01T03:04:50.384Z,93
2019-03-01T03:09:49.754Z,93
2019-03-01T03:14:49.766Z,93
2019-03-01T03:19:49.655Z,93
2019-03-01T03:24:49.734Z,93
2019-03-01T03:29:50.204Z,93
2019-03-01T03:34:50.428Z,93
2019-03-01T03:39:50.466Z,93
2019-03-01T03:44:49.966Z,93
2019-03-01T03:49:50.362Z,93
2019-03-01T03:54:50.403Z,93
2019-03-01T03:59:50.366Z,93
2019-03-01T04:04:50.313Z,93
2019-03-01T04:09:49.940Z,93
2019-03-01T04:14:49.874Z,94
2019-03-01T04:19:49.957Z,94
2019-03-01T04:24:49.921Z,94
2019-03-01T04:29:49.824Z,94
2019-03-01T04:34:50.026Z,94
2019-03-01T04:39:49.915Z,94
2019-03-01T04:44:49.860Z,94
2019-03-01T04:49:50.070Z,94
2019-03-01T04:54:50.118Z,94
2019-03-01T04:59:50.068Z,94
2019-03-01T05:04:50.284Z,94
2019-03-01T05:09:50.327Z,94
2019-03-01T05:14:50.267Z,94
2019-03-01T05:19:50.315Z,94
2019-03-01T05:24:50.283Z,94
2019-03-01T05:29:50.632Z,94
2019-03-01T05:34:50.241Z,94
2019-03-01T05:39:50.186Z,94
2019-03-01T05:44:50.187Z,95
2019-03-01T05:49:50.457Z,95
2019-03-01T05:54:50.783Z,95
2019-03-01T05:59:49.881Z,95
2019-03-01T06:04:50.092Z,95
2019-03-01T06:09:50.445Z,95
2019-03-01T06:14:50.529Z,95
2019-03-01T06:19:50.655Z,95
2019-03-01T06:24:50.181Z,95
2019-03-01T06:29:50.150Z,95
2019-03-01T06:34:50.218Z,95
2019-03-01T06:39:50.411Z,95
2019-03-01T06:44:50.289Z,95
2019-03-01T06:49:50.195Z,95
2019-03-01T06:54:50.547Z,95
2019-03-01T06:59:50.371Z,95
2019-03-01T07:04:50.669Z,95
2019-03-01T07:09:50.193Z,95
2019-03-01T07:14:50.141Z,95
2019-03-01T07:19:50.327Z,95
2019-03-01T07:24:50.721Z,95
2019-03-01T07:29:50.851Z,95
2019-03-01T07:34:51.065Z,95
2019-03-01T07:39:50.294Z,95
2019-03-01T07:44:50.362Z,95
2019-03-01T07:49:50.415Z,95
2019-03-01T07:54:52.965Z,95
2019-03-01T07:59:50.703Z,95
2019-03-01T08:04:50.875Z,94
2019-03-01T08:09:50.728Z,94
2019-03-01T08:14:50.704Z,94
2019-03-01T08:19:50.284Z,94
2019-03-01T08:24:50.487Z,94
2019-03-01T08:29:50.354Z,94
2019-03-01T08:34:53.641Z,94
2019-03-01T08:39:50.352Z,94
2019-03-01T08:44:50.221Z,93
2019-03-01T08:49:50.218Z,93
2019-03-01T08:54:50.302Z,92
2019-03-01T08:59:50.307Z,92
2019-03-01T09:04:50.947Z,90
2019-03-01T09:09:53.687Z,90
2019-03-01T09:14:50.239Z,89
2019-03-01T09:19:50.191Z,89
2019-03-01T09:24:50.160Z,87
2019-03-01T09:29:51.092Z,87
2019-03-01T09:34:50.181Z,86
2019-03-01T09:39:50.434Z,86
2019-03-01T09:44:50.573Z,84
2019-03-01T09:49:50.885Z,84
2019-03-01T09:54:50.467Z,83
2019-03-01T09:59:50.635Z,83
2019-03-01T10:04:50.871Z,82
2019-03-01T10:09:50.781Z,82
2019-03-01T10:14:50.785Z,82
2019-03-01T10:19:50.766Z,82
2019-03-01T10:24:50.285Z,81
2019-03-01T10:29:50.170Z,81
2019-03-01T10:34:50.760Z,81
2019-03-01T10:39:55.394Z,81
2019-03-01T10:44:51.145Z,81
2019-03-01T10:49:51.142Z,81
2019-03-01T10:54:50.429Z,80
2019-03-01T10:59:50.568Z,80
2019-03-01T11:04:50.629Z,80
2019-03-01T11:09:50.251Z,80
2019-03-01T11:14:50.284Z,79
2019-03-01T11:19:51.050Z,79
2019-03-01T11:24:51.084Z,79
2019-03-01T11:29:50.705Z,79
2019-03-01T11:34:50.603Z,79
2019-03-01T11:39:50.622Z,79
2019-03-01T11:44:50.663Z,79
2019-03-01T11:49:50.609Z,79
2019-03-01T11:54:50.782Z,78
2019-03-01T11:59:51.081Z,78
2019-03-01T12:04:50.426Z,78
2019-03-01T12:09:50.656Z,78
2019-03-01T12:14:51.282Z,78
2019-03-01T12:19:50.630Z,78
2019-03-01T12:24:50.538Z,78
2019-03-01T12:29:50.529Z,78
2019-03-01T12:34:50.764Z,77
2019-03-01T12:39:50.786Z,77
2019-03-01T12:44:52.230Z,77
2019-03-01T12:49:50.576Z,77
2019-03-01T12:54:50.787Z,75
2019-03-01T12:59:50.817Z,75
2019-03-01T13:04:53.573Z,74
2019-03-01T13:09:50.656Z,74
2019-03-01T13:14:51.280Z,74
2019-03-01T13:19:51.316Z,74
2019-03-01T13:24:53.284Z,74
2019-03-01T13:29:50.562Z,74
2019-03-01T13:34:51.046Z,73
2019-03-01T13:39:51.047Z,73
2019-03-01T13:44:51.029Z,73
2019-03-01T13:49:51.233Z,73
2019-03-01T13:54:52.290Z,73
2019-03-01T13:59:50.377Z,73
2019-03-01T14:04:51.431Z,73
2019-03-01T14:09:51.200Z,73
2019-03-01T14:14:50.811Z,72
2019-03-01T14:19:50.812Z,72
2019-03-01T14:24:50.529Z,73
2019-03-01T14:29:53.656Z,73
2019-03-01T14:34:50.912Z,73
2019-03-01T14:39:51.188Z,73
2019-03-01T14:44:51.254Z,73
2019-03-01T14:49:54.054Z,73
2019-03-01T14:54:51.339Z,73
2019-03-01T14:59:51.366Z,73
2019-03-01T15:04:50.767Z,73
2019-03-01T15:09:53.314Z,73
2019-03-01T15:14:50.915Z,73
2019-03-01T15:19:51.065Z,73
2019-03-01T15:24:51.154Z,74
2019-03-01T15:29:50.677Z,74
2019-03-01T15:34:50.863Z,74
2019-03-01T15:39:51.262Z,74
2019-03-01T15:44:51.077Z,74
2019-03-01T15:49:52.269Z,74
2019-03-01T15:54:51.520Z,74
2019-03-01T15:59:50.601Z,74
2019-03-01T16:04:50.785Z,75
2019-03-01T16:09:51.113Z,75
2019-03-01T16:14:50.805Z,75
2019-03-01T16:19:53.356Z,75
2019-03-01T16:24:50.514Z,76
2019-03-01T16:29:51.548Z,76
2019-03-01T16:34:50.646Z,76
2019-03-01T16:39:50.805Z,76
2019-03-01T16:44:50.803Z,76
2019-03-01T16:49:50.818Z,76
2019-03-01T16:54:52.433Z,76
2019-03-01T16:59:50.786Z,76
2019-03-01T17:04:51.022Z,76
2019-03-01T17:09:54.014Z,76
2019-03-01T17:14:50.794Z,76
2019-03-01T17:19:50.926Z,76
2019-03-01T17:24:51.273Z,77
2019-03-01T17:29:50.886Z,77
2019-03-01T17:34:52.134Z,77
2019-03-01T17:39:53.137Z,77
2019-03-01T17:44:51.630Z,77
2019-03-01T17:49:50.824Z,77
2019-03-01T17:54:50.819Z,78
2019-03-01T17:59:50.772Z,78
2019-03-01T18:04:50.980Z,78
2019-03-01T18:09:51.947Z,78
2019-03-01T18:14:51.092Z,78
2019-03-01T18:19:51.120Z,78
2019-03-01T18:24:51.210Z,78
2019-03-01T18:29:51.206Z,78
2019-03-01T18:34:51.411Z,78
2019-03-01T18:39:51.469Z,78
2019-03-01T18:44:50.819Z,78
2019-03-01T18:49:51.418Z,78
2019-03-01T18:54:50.986Z,78
2019-03-01T18:59:51.083Z,78
2019-03-01T19:04:51.230Z,79
2019-03-01T19:09:52.141Z,79
2019-03-01T19:14:51.276Z,80
2019-03-01T19:19:50.929Z,80
2019-03-01T19:24:50.944Z,80
2019-03-01T19:29:50.957Z,80
2019-03-01T19:34:52.771Z,80
2019-03-01T19:39:51.588Z,80
2019-03-01T19:44:51.687Z,81
2019-03-01T19:49:51.756Z,81
2019-03-01T19:54:51.819Z,82
2019-03-01T19:59:51.078Z,82
2019-03-01T20:04:52.560Z,82
2019-03-01T20:09:51.589Z,82
2019-03-01T20:14:50.847Z,83
2019-03-01T20:19:53.554Z,83
2019-03-01T20:24:51.822Z,83
2019-03-01T20:29:52.468Z,83
2019-03-01T20:34:51.749Z,84
2019-03-01T20:39:52.096Z,84
2019-03-01T20:44:53.095Z,84
2019-03-01T20:49:51.176Z,84
2019-03-01T20:54:51.197Z,85
2019-03-01T20:59:51.622Z,85
2019-03-01T21:04:53.628Z,85
2019-03-01T21:09:51.897Z,85
2019-03-01T21:14:51.252Z,85
2019-03-01T21:19:51.344Z,85
2019-03-01T21:24:51.402Z,85
2019-03-01T21:29:51.559Z,85
2019-03-01T21:34:51.805Z,85
2019-03-01T21:39:51.853Z,85
2019-03-01T21:44:51.051Z,85
2019-03-01T21:49:51.101Z,85
2019-03-01T21:54:52.017Z,85
2019-03-01T21:59:52.543Z,85
2019-03-01T22:04:51.804Z,85
2019-03-01T22:09:51.057Z,85
2019-03-01T22:14:52.249Z,85
2019-03-01T22:19:52.248Z,85
2019-03-01T22:24:51.536Z,85
2019-03-01T22:29:51.622Z,85
2019-03-01T22:34:51.721Z,84
2019-03-01T22:39:52.294Z,84
2019-03-01T22:44:51.362Z,84
2019-03-01T22:49:51.556Z,84
2019-03-01T22:54:51.571Z,84
2019-03-01T22:59:51.565Z,84
2019-03-01T23:04:51.323Z,84
2019-03-01T23:09:51.032Z,84
2019-03-01T23:14:51.200Z,84
2019-03-01T23:19:52.705Z,84
2019-03-01T23:24:51.946Z,84
2019-03-01T23:29:54.250Z,84
2019-03-01T23:34:51.161Z,84
2019-03-01T23:39:51.298Z,84
2019-03-01T23:44:51.336Z,84
2019-03-01T23:49:51.573Z,84
2019-03-01T23:54:51.702Z,83
2019-03-01T23:59:51.634Z,83
